UNNT/OVB METAR and TAF weather

Enter ICAO airport designator
Station Type Date Time Source
UNNT METAR 2019/02/17 07:30 UTC NOAA

UNNT 170730Z 17007MPS CAVOK M00/M03 Q1009 R16/390140 R25/390135 NOSIG RMK QFE747/0996


Station Type Date Time Source
UNNT Decoded METAR 2019/02/17 07:30 UTC NOAA

Station name not available
Feb 17, 2019 - 02:30 AM EST / 2019.02.17 0730 UTC
Wind: from the S (170 degrees) at 16 MPH (14 KT):0
Visibility: greater than 7 mile(s):0
Temperature: 32 F (0 C)
Windchill: 21 F (-6 C):1
Dew Point: 26 F (-3 C)
Relative Humidity: 80%
Pressure (altimeter): 29.80 in. Hg (1009 hPa)
ob: UNNT 170730Z 17007MPS CAVOK M00/M03 Q1009 R16/390140 R25/390135 NOSIG RMK QFE747/0996
cycle: 7

Station Type Date Time Source
UNNT TAF 2019/02/17 06:24 UTC NOAA

TAF UNNT 170500Z 1706/1806 18007G14MPS 9999 DRSN BKN020CB
TEMPO 1706/1712 3100 -SHSNRA BKN005 BKN010CB
TEMPO 1723/1806 0600 +SHSN BKN005 BKN010CB


Example: see airport list